Time;durP1;ratioP1;P1;durP2;ratioP2;P2;SDS_P1;SDS_P2;PMS_P1;PMS_P2;Temp;Humidity;BMP_temperature;BMP_pressure;BME280_temperature;BME280_humidity;BME280_pressure;Samples;Min_cycle;Max_cycle;Signal;HPM_P1;HPM_P2
2022/12/16 00:00:14;;;;;;;91.25;48.65;;;-1.40;99.90;;;;;;5026162;28;20033;-57
2022/12/16 00:02:40;;;;;;;92.97;48.28;;;-1.40;99.90;;;;;;5025987;28;20080;-57
2022/12/16 00:05:07;;;;;;;89.43;49.10;;;-1.30;99.90;;;;;;5026051;28;20050;-57
2022/12/16 00:07:33;;;;;;;95.28;48.40;;;-1.30;99.90;;;;;;5028744;28;20033;-57
2022/12/16 00:09:59;;;;;;;101.18;48.50;;;-1.30;99.90;;;;;;5029262;28;20479;-57
2022/12/16 00:12:25;;;;;;;94.97;48.83;;;-1.30;99.90;;;;;;5029505;28;20096;-57
2022/12/16 00:14:51;;;;;;;92.53;48.05;;;-1.30;99.90;;;;;;5029561;28;20033;-57
2022/12/16 00:17:16;;;;;;;90.53;46.28;;;-1.20;99.90;;;;;;5028085;28;20052;-57
2022/12/16 00:19:42;;;;;;;87.88;46.72;;;-1.20;99.90;;;;;;5029310;28;20041;-57
2022/12/16 00:22:08;;;;;;;94.80;49.22;;;-1.20;99.90;;;;;;5029375;28;20041;-57
2022/12/16 00:24:34;;;;;;;89.78;47.08;;;-1.20;99.90;;;;;;5029181;28;20091;-57
2022/12/16 00:26:59;;;;;;;86.65;45.55;;;-1.20;99.90;;;;;;5028063;28;20053;-57
2022/12/16 00:29:25;;;;;;;90.75;47.75;;;-1.20;99.90;;;;;;5029827;28;20475;-57
2022/12/16 00:31:51;;;;;;;86.18;47.20;;;-1.20;99.90;;;;;;5027679;28;20525;-57
2022/12/16 00:34:17;;;;;;;88.47;48.15;;;-1.20;99.90;;;;;;5029771;28;20041;-57
2022/12/16 00:36:43;;;;;;;89.07;46.30;;;-1.20;99.90;;;;;;5029996;28;20384;-57
2022/12/16 00:39:09;;;;;;;90.10;47.25;;;-1.30;99.90;;;;;;5029566;28;20043;-57
2022/12/16 00:41:36;;;;;;;94.65;47.53;;;-1.20;99.90;;;;;;5030049;28;20132;-57
2022/12/16 00:44:02;;;;;;;92.88;47.35;;;-1.30;99.90;;;;;;5029986;28;20049;-57
2022/12/16 00:46:27;;;;;;;91.15;47.13;;;-1.30;99.90;;;;;;5029952;28;20379;-57
2022/12/16 00:48:53;;;;;;;90.30;47.28;;;-1.30;99.90;;;;;;5029785;28;20037;-57
2022/12/16 00:51:19;;;;;;;93.40;45.15;;;-1.30;99.90;;;;;;5028299;28;20053;-57
2022/12/16 00:53:45;;;;;;;86.75;46.63;;;-1.20;99.90;;;;;;5029214;28;20049;-57
2022/12/16 00:56:17;;;;;;;96.25;48.60;;;-1.20;99.90;;;;;;5028895;28;20076;-57
2022/12/16 00:58:43;;;;;;;90.88;47.30;;;-1.20;99.90;;;;;;5029730;28;20123;-57
2022/12/16 01:01:09;;;;;;;90.40;46.97;;;-1.20;99.90;;;;;;5029306;28;20073;-57
2022/12/16 01:03:35;;;;;;;89.15;46.85;;;-1.20;99.90;;;;;;5029694;28;20133;-57
2022/12/16 01:06:06;;;;;;;94.72;47.47;;;-1.30;99.90;;;;;;5029508;28;20069;-57
2022/12/16 01:08:31;;;;;;;94.15;47.47;;;-1.30;99.90;;;;;;5029391;28;20554;-57
2022/12/16 01:10:57;;;;;;;89.68;47.20;;;-1.30;99.90;;;;;;5028920;28;20160;-57
2022/12/16 01:13:24;;;;;;;90.13;48.30;;;-1.30;99.90;;;;;;5027624;28;20060;-57
2022/12/16 01:15:50;;;;;;;96.60;47.60;;;-1.30;99.90;;;;;;5027532;28;20042;-57
2022/12/16 01:18:16;;;;;;;97.75;49.80;;;-1.30;99.90;;;;;;5028217;28;20052;-57
2022/12/16 01:20:42;;;;;;;97.30;51.72;;;-1.20;99.90;;;;;;5028625;28;20486;-57
2022/12/16 01:23:08;;;;;;;96.10;49.70;;;-1.20;99.90;;;;;;5028561;28;20045;-57
2022/12/16 01:25:34;;;;;;;96.85;51.17;;;-1.20;99.90;;;;;;5028924;28;20128;-57
2022/12/16 01:27:59;;;;;;;100.72;53.08;;;-1.20;99.90;;;;;;5028677;28;20065;-56
2022/12/16 01:30:25;;;;;;;93.75;49.22;;;-1.20;99.90;;;;;;5028593;28;20049;-57
2022/12/16 01:32:51;;;;;;;106.28;51.03;;;-1.20;99.90;;;;;;5028382;28;20045;-57
2022/12/16 01:35:16;;;;;;;95.68;51.13;;;-1.20;99.90;;;;;;5026586;28;20132;-57
2022/12/16 01:37:42;;;;;;;91.22;51.28;;;-1.20;99.90;;;;;;5028474;28;20045;-57
2022/12/16 01:40:17;;;;;;;91.53;49.58;;;-1.20;99.90;;;;;;5028476;28;20042;-57
2022/12/16 01:42:43;;;;;;;93.18;50.15;;;-1.20;99.90;;;;;;5028739;28;20068;-57
2022/12/16 01:45:34;;;;;;;106.15;50.72;;;-1.20;99.90;;;;;;5028400;28;20053;-57
2022/12/16 01:48:31;;;;;;;102.30;52.50;;;-1.20;99.90;;;;;;5020832;28;20056;-57
2022/12/16 01:51:03;;;;;;;88.20;48.60;;;-1.10;99.90;;;;;;5028622;28;20476;-57
2022/12/16 01:53:29;;;;;;;104.60;51.92;;;-1.10;99.90;;;;;;5027272;28;20057;-57
2022/12/16 01:55:57;;;;;;;98.60;50.05;;;-1.10;99.90;;;;;;5028309;28;20064;-57
2022/12/16 01:58:27;;;;;;;96.28;47.95;;;-1.10;99.90;;;;;;5028053;28;20053;-57
2022/12/16 02:00:53;;;;;;;106.47;50.65;;;-1.10;99.90;;;;;;5028453;28;20114;-57
2022/12/16 02:03:19;;;;;;;93.18;49.22;;;-1.10;99.90;;;;;;5027534;28;20651;-57
2022/12/16 02:05:46;;;;;;;99.47;50.35;;;-1.10;99.90;;;;;;5026402;28;20052;-57
2022/12/16 02:08:17;;;;;;;102.00;50.90;;;-1.30;99.90;;;;;;5027592;28;20060;-57
2022/12/16 02:10:43;;;;;;;102.60;50.83;;;-1.00;99.90;;;;;;5027790;28;20041;-57
2022/12/16 02:13:32;;;;;;;99.63;50.80;;;-1.00;99.90;;;;;;5027267;28;20055;-57
2022/12/16 02:16:12;;;;;;;91.45;46.28;;;-1.00;99.90;;;;;;5027562;28;20045;-57
2022/12/16 02:18:45;;;;;;;97.47;48.95;;;-1.00;99.90;;;;;;5027623;28;20033;-57
2022/12/16 02:21:40;;;;;;;103.40;49.22;;;-1.00;99.90;;;;;;5027286;28;20056;-57
2022/12/16 02:24:44;;;;;;;98.20;48.72;;;-1.00;99.90;;;;;;5013684;28;20057;-57
2022/12/16 02:27:36;;;;;;;99.25;47.92;;;-1.00;99.90;;;;;;5027890;28;20124;-57
2022/12/16 02:30:25;;;;;;;92.27;46.27;;;-1.00;99.90;;;;;;5023651;28;20495;-57
2022/12/16 02:33:16;;;;;;;96.47;47.55;;;-1.00;99.90;;;;;;5019253;28;20049;-57
2022/12/16 02:36:06;;;;;;;96.90;47.42;;;-1.00;99.90;;;;;;5027121;28;20033;-57
2022/12/16 02:38:47;;;;;;;99.70;48.40;;;-0.90;99.90;;;;;;5028084;28;20123;-57
2022/12/16 02:41:22;;;;;;;90.18;48.95;;;-0.90;99.90;;;;;;5027038;28;20067;-57
2022/12/16 02:44:02;;;;;;;103.35;49.97;;;-1.00;99.90;;;;;;5027020;28;20045;-57
2022/12/16 02:46:31;;;;;;;102.18;49.55;;;-0.90;99.90;;;;;;5026725;28;20049;-57
2022/12/16 02:49:08;;;;;;;92.22;50.10;;;-1.00;99.90;;;;;;5026988;28;20753;-57
2022/12/16 02:51:36;;;;;;;96.55;48.40;;;-0.90;99.90;;;;;;5026911;28;20057;-57
2022/12/16 02:54:04;;;;;;;96.07;49.95;;;-0.90;99.90;;;;;;5026807;28;20081;-57
2022/12/16 02:56:59;;;;;;;105.80;49.33;;;-0.90;99.90;;;;;;5026908;28;20084;-57
2022/12/16 02:59:55;;;;;;;82.50;45.30;;;-0.90;99.90;;;;;;5027140;28;20075;-58
2022/12/16 03:02:29;;;;;;;89.75;44.60;;;-0.90;99.90;;;;;;5027025;28;20414;-57
2022/12/16 03:05:05;;;;;;;86.05;44.38;;;-0.90;99.90;;;;;;5027228;28;20179;-57
2022/12/16 03:07:33;;;;;;;93.30;46.10;;;-0.80;99.90;;;;;;5027045;28;20051;-57
2022/12/16 03:09:59;;;;;;;90.18;45.80;;;-0.80;99.90;;;;;;5027034;28;20107;-57
2022/12/16 03:12:26;;;;;;;86.03;44.15;;;-0.80;99.90;;;;;;5026681;28;20045;-57
2022/12/16 03:14:53;;;;;;;96.43;47.08;;;-0.80;99.90;;;;;;5027115;28;20586;-57
2022/12/16 03:17:22;;;;;;;96.53;47.95;;;-0.80;99.90;;;;;;5027066;28;20042;-57
2022/12/16 03:20:15;;;;;;;95.75;49.33;;;-0.80;99.90;;;;;;5027306;28;20048;-57
2022/12/16 03:22:44;;;;;;;91.53;47.53;;;-0.80;99.90;;;;;;5027732;28;20200;-58
2022/12/16 03:25:10;;;;;;;92.38;46.75;;;-0.80;99.90;;;;;;5027187;28;20387;-57
2022/12/16 03:27:48;;;;;;;95.70;48.88;;;-0.80;99.90;;;;;;5026744;28;20049;-57
2022/12/16 03:30:24;;;;;;;101.05;47.90;;;-0.80;99.90;;;;;;5026714;28;20049;-57
2022/12/16 03:33:39;;;;;;;93.55;47.85;;;-0.80;99.90;;;;;;5026821;28;20049;-57
2022/12/16 03:36:17;;;;;;;98.13;47.78;;;-0.80;99.90;;;;;;5023025;28;20045;-57
2022/12/16 03:38:45;;;;;;;98.53;46.30;;;-0.80;99.90;;;;;;5008568;28;20051;-58
2022/12/16 03:41:12;;;;;;;88.65;46.53;;;-0.80;99.90;;;;;;5027290;28;20125;-57
2022/12/16 03:43:38;;;;;;;85.93;43.33;;;-0.80;99.90;;;;;;5029628;28;20380;-58
2022/12/16 03:46:06;;;;;;;93.75;46.47;;;-0.80;99.90;;;;;;5029594;28;20048;-57
2022/12/16 03:48:32;;;;;;;102.05;47.30;;;-0.70;99.90;;;;;;5029656;28;20773;-57
2022/12/16 03:50:58;;;;;;;86.15;45.75;;;-0.70;99.90;;;;;;5029924;28;20103;-57
2022/12/16 03:53:25;;;;;;;90.30;48.95;;;-0.70;99.90;;;;;;5029875;28;20052;-57
2022/12/16 03:55:52;;;;;;;93.90;48.70;;;-0.70;99.90;;;;;;5030268;28;20089;-57
2022/12/16 03:58:18;;;;;;;85.35;45.13;;;-0.70;99.90;;;;;;5030337;28;20119;-57
2022/12/16 04:00:43;;;;;;;92.68;44.15;;;-0.70;99.90;;;;;;5028263;28;20668;-57
2022/12/16 04:03:09;;;;;;;93.88;47.05;;;-0.60;99.90;;;;;;5029817;28;20041;-57
2022/12/16 04:05:35;;;;;;;83.05;44.47;;;-0.60;99.90;;;;;;5028840;28;20136;-57
2022/12/16 04:08:00;;;;;;;83.97;43.92;;;-0.60;99.90;;;;;;5029491;28;20071;-57
2022/12/16 04:24:18;;;;;;;92.35;43.72;;;-0.60;99.90;;;;;;5029917;28;20091;-57
2022/12/16 04:29:29;;;;;;;79.15;42.80;;;-0.50;99.90;;;;;;5029469;28;20053;-57
2022/12/16 04:31:55;;;;;;;84.65;43.25;;;-0.50;99.90;;;;;;5029707;28;20049;-57
2022/12/16 04:34:24;;;;;;;79.38;41.58;;;-0.50;99.90;;;;;;5027821;28;20048;-57
